createdAt,value
2023-02-03T00:01:03.907Z,8.90
2023-02-03T00:03:30.666Z,8.90
2023-02-03T00:05:57.577Z,8.90
2023-02-03T00:08:27.362Z,8.90
2023-02-03T00:10:54.767Z,8.90
2023-02-03T00:13:21.894Z,8.90
2023-02-03T00:15:48.735Z,8.90
2023-02-03T00:18:15.518Z,8.90
2023-02-03T00:20:42.383Z,8.90
2023-02-03T00:23:11.449Z,8.90
2023-02-03T00:25:39.248Z,8.90
2023-02-03T00:28:06.385Z,8.90
2023-02-03T00:30:36.753Z,8.90
2023-02-03T00:33:04.293Z,8.90
2023-02-03T00:35:32.470Z,8.90
2023-02-03T00:37:59.284Z,8.90
2023-02-03T00:40:27.329Z,8.90
2023-02-03T00:42:55.003Z,8.90
2023-02-03T00:45:22.173Z,8.90
2023-02-03T00:47:48.968Z,8.90
2023-02-03T00:50:16.055Z,8.90
2023-02-03T00:52:42.877Z,9.00
2023-02-03T00:55:09.847Z,9.00
2023-02-03T00:57:36.673Z,8.90
2023-02-03T01:00:04.104Z,9.00
2023-02-03T01:02:30.986Z,9.00
2023-02-03T01:04:57.852Z,9.00
2023-02-03T01:07:27.193Z,9.00
2023-02-03T01:09:56.982Z,9.00
2023-02-03T01:12:23.775Z,9.00
2023-02-03T01:14:50.610Z,9.00
2023-02-03T01:17:17.374Z,9.00
2023-02-03T01:19:44.120Z,9.00
2023-02-03T01:22:10.896Z,9.00
2023-02-03T01:24:37.699Z,9.00
2023-02-03T01:27:06.248Z,9.00
2023-02-03T01:29:33.031Z,9.00
2023-02-03T01:31:59.878Z,9.00
2023-02-03T01:34:26.762Z,9.10
2023-02-03T01:36:53.554Z,9.10
2023-02-03T01:39:22.765Z,9.00
2023-02-03T01:41:49.519Z,9.10
2023-02-03T01:44:41.246Z,9.10
2023-02-03T01:47:24.969Z,9.00
2023-02-03T01:50:17.528Z,9.00
2023-02-03T01:52:47.573Z,9.00
2023-02-03T01:55:20.010Z,9.00
2023-02-03T01:58:12.600Z,9.00
2023-02-03T02:00:40.008Z,9.00
2023-02-03T02:03:10.524Z,9.10
2023-02-03T02:05:43.981Z,9.00
2023-02-03T02:08:13.764Z,9.10
2023-02-03T02:10:40.988Z,9.10
2023-02-03T02:13:07.873Z,9.10
2023-02-03T02:15:45.782Z,9.10
2023-02-03T02:18:20.558Z,9.10
2023-02-03T02:20:53.547Z,9.10
2023-02-03T02:23:25.786Z,9.10
2023-02-03T02:26:23.239Z,9.10
2023-02-03T02:29:17.909Z,9.10
2023-02-03T02:32:12.690Z,9.10
2023-02-03T02:34:39.423Z,9.10
2023-02-03T02:37:22.808Z,9.10
2023-02-03T02:40:46.010Z,9.10
2023-02-03T02:43:15.140Z,9.10
2023-02-03T02:45:52.105Z,9.10
2023-02-03T02:48:35.761Z,9.10
2023-02-03T02:51:05.877Z,9.10
2023-02-03T02:53:44.460Z,9.10
2023-02-03T02:56:15.532Z,9.10
2023-02-03T02:58:44.819Z,9.10
2023-02-03T03:01:15.810Z,9.20
2023-02-03T03:03:45.092Z,9.20
2023-02-03T03:06:34.509Z,9.20
2023-02-03T03:09:29.844Z,9.20
2023-02-03T03:12:01.773Z,9.10
2023-02-03T03:14:31.965Z,9.10
2023-02-03T03:17:02.748Z,9.10
2023-02-03T03:19:37.349Z,9.10
2023-02-03T03:22:07.208Z,9.10
2023-02-03T03:24:38.935Z,9.10
2023-02-03T03:27:10.560Z,9.10
2023-02-03T03:29:40.843Z,9.10
2023-02-03T03:32:08.400Z,9.10
2023-02-03T03:34:35.623Z,9.10
2023-02-03T03:37:05.472Z,9.10
2023-02-03T03:39:51.418Z,9.20
2023-02-03T03:42:26.788Z,9.10
2023-02-03T03:45:20.683Z,9.10
2023-02-03T03:48:13.446Z,9.10
2023-02-03T03:51:08.371Z,9.10
2023-02-03T03:53:38.842Z,9.20
2023-02-03T03:56:09.814Z,9.10
2023-02-03T03:58:39.288Z,9.20
2023-02-03T04:01:07.351Z,9.10
2023-02-03T04:03:39.963Z,9.20
2023-02-03T04:06:07.323Z,9.20
2023-02-03T04:08:34.128Z,9.20
2023-02-03T04:11:00.951Z,9.20
2023-02-03T04:13:27.727Z,9.20
2023-02-03T04:15:54.636Z,9.20
2023-02-03T04:18:21.511Z,9.20
2023-02-03T04:20:48.636Z,9.20
2023-02-03T04:23:15.682Z,9.20
2023-02-03T04:25:42.496Z,9.20
2023-02-03T04:28:09.666Z,9.20
2023-02-03T04:30:36.602Z,9.20
2023-02-03T04:33:03.442Z,9.20
2023-02-03T04:35:30.207Z,9.20
2023-02-03T04:37:56.992Z,9.30
2023-02-03T04:40:23.784Z,9.20
2023-02-03T04:42:50.604Z,9.20
2023-02-03T04:45:17.441Z,9.20
2023-02-03T04:47:44.181Z,9.20
2023-02-03T04:50:10.981Z,9.20
2023-02-03T04:52:38.379Z,9.20
2023-02-03T04:55:05.525Z,9.20
2023-02-03T04:57:32.316Z,9.20
2023-02-03T04:59:59.078Z,9.20
2023-02-03T05:02:25.857Z,9.20
2023-02-03T05:04:52.747Z,9.20
2023-02-03T05:07:19.557Z,9.20
2023-02-03T05:09:46.395Z,9.20
2023-02-03T05:12:13.189Z,9.30
2023-02-03T05:14:40.019Z,9.20
2023-02-03T05:17:06.811Z,9.20
2023-02-03T05:19:33.616Z,9.20
2023-02-03T05:22:00.388Z,9.20
2023-02-03T05:24:27.168Z,9.20
2023-02-03T05:26:53.951Z,9.20
2023-02-03T05:29:21.371Z,9.20
2023-02-03T05:31:48.270Z,9.20
2023-02-03T05:34:15.106Z,9.20
2023-02-03T05:36:41.836Z,9.30
2023-02-03T05:39:08.711Z,9.20
2023-02-03T05:41:54.877Z,9.20
2023-02-03T05:44:24.686Z,9.30
2023-02-03T05:46:55.054Z,9.30
2023-02-03T05:49:23.345Z,9.20
2023-02-03T05:51:53.723Z,9.20
2023-02-03T05:54:20.828Z,9.30
2023-02-03T05:56:47.588Z,9.20
2023-02-03T05:59:14.639Z,9.30
2023-02-03T06:01:41.468Z,9.30
2023-02-03T06:04:08.365Z,9.30
2023-02-03T06:06:35.799Z,9.30
2023-02-03T06:09:09.371Z,9.30
2023-02-03T06:11:36.899Z,9.30
2023-02-03T06:14:06.734Z,9.30
2023-02-03T06:16:33.563Z,9.30
2023-02-03T06:19:01.934Z,9.30
2023-02-03T06:21:29.326Z,9.30
2023-02-03T06:23:56.658Z,9.30
2023-02-03T06:26:25.037Z,9.30
2023-02-03T06:28:51.850Z,9.30
2023-02-03T06:31:18.755Z,9.30
2023-02-03T06:33:45.573Z,9.30
2023-02-03T06:36:12.385Z,9.30
2023-02-03T06:38:39.134Z,9.30
2023-02-03T06:41:05.900Z,9.40
2023-02-03T06:43:32.755Z,9.40
2023-02-03T06:45:59.711Z,9.40
2023-02-03T06:48:26.695Z,9.40
2023-02-03T06:50:53.655Z,9.40
2023-02-03T06:53:20.630Z,9.40
2023-02-03T06:55:48.067Z,9.40
2023-02-03T06:58:15.166Z,9.40
2023-02-03T07:00:41.940Z,9.40
2023-02-03T07:03:08.735Z,9.40
2023-02-03T07:05:36.865Z,9.40
2023-02-03T07:08:03.713Z,9.30
2023-02-03T07:10:30.714Z,9.30
2023-02-03T07:13:03.863Z,9.40
2023-02-03T07:15:30.789Z,9.40
2023-02-03T07:17:57.648Z,9.40
2023-02-03T07:20:24.930Z,9.40
2023-02-03T07:22:58.688Z,9.40
2023-02-03T07:25:26.344Z,9.40
2023-02-03T07:28:02.499Z,9.40
2023-02-03T07:30:29.668Z,9.40
2023-02-03T07:32:56.673Z,9.40
2023-02-03T07:35:23.860Z,9.40
2023-02-03T07:37:50.637Z,9.40
2023-02-03T07:40:17.807Z,9.40
2023-02-03T07:42:49.143Z,9.40
2023-02-03T07:45:20.439Z,9.50
2023-02-03T07:47:47.223Z,9.50
2023-02-03T07:50:14.168Z,9.50
2023-02-03T07:52:43.534Z,9.50
2023-02-03T07:55:13.349Z,9.40
2023-02-03T07:57:43.475Z,9.50
2023-02-03T08:00:13.052Z,9.50
2023-02-03T08:02:45.244Z,9.50
2023-02-03T08:05:16.162Z,9.50
2023-02-03T08:07:43.421Z,9.50
2023-02-03T08:10:12.439Z,9.50
2023-02-03T08:12:39.908Z,9.50
2023-02-03T08:15:07.305Z,9.50
2023-02-03T08:17:34.087Z,9.50
2023-02-03T08:20:01.130Z,9.50
2023-02-03T08:22:27.997Z,9.50
2023-02-03T08:24:54.829Z,9.50
2023-02-03T08:27:23.251Z,9.50
2023-02-03T08:29:50.445Z,9.50
2023-02-03T08:32:20.169Z,9.50
2023-02-03T08:34:47.531Z,9.50
2023-02-03T08:37:19.089Z,9.50
2023-02-03T08:39:46.228Z,9.50
2023-02-03T08:42:13.411Z,9.50
2023-02-03T08:44:40.222Z,9.40
2023-02-03T08:47:08.029Z,9.40
2023-02-03T08:49:35.940Z,9.50
2023-02-03T08:52:02.938Z,9.50
2023-02-03T08:54:29.761Z,9.50
2023-02-03T08:56:56.821Z,9.40
2023-02-03T08:59:23.785Z,9.50
2023-02-03T09:01:51.939Z,9.50
2023-02-03T09:04:19.720Z,9.50
2023-02-03T09:06:49.861Z,9.50
2023-02-03T09:09:16.714Z,9.50
2023-02-03T09:11:43.887Z,9.50
2023-02-03T09:14:11.247Z,9.50
2023-02-03T09:16:38.258Z,9.50
2023-02-03T09:19:05.288Z,9.50
2023-02-03T09:21:38.840Z,9.50
2023-02-03T09:24:10.249Z,9.50
2023-02-03T09:26:39.944Z,9.50
2023-02-03T09:29:10.563Z,9.50
2023-02-03T09:31:37.434Z,9.50
2023-02-03T09:34:04.264Z,9.50
2023-02-03T09:36:31.123Z,9.50
2023-02-03T09:39:01.035Z,9.50
2023-02-03T09:41:51.790Z,9.50
2023-02-03T09:44:41.546Z,9.50
2023-02-03T09:47:17.241Z,9.50
2023-02-03T09:50:09.141Z,9.50
2023-02-03T09:52:40.645Z,9.50
2023-02-03T09:55:43.270Z,9.50
2023-02-03T09:58:16.306Z,9.50
2023-02-03T10:01:01.211Z,9.50
2023-02-03T10:03:39.736Z,9.50
2023-02-03T10:06:36.854Z,9.60
2023-02-03T10:09:24.453Z,9.60
2023-02-03T10:12:15.884Z,9.60
2023-02-03T10:14:59.924Z,9.70
2023-02-03T10:17:43.293Z,9.70
2023-02-03T10:20:10.113Z,9.80
2023-02-03T10:22:45.093Z,9.80
2023-02-03T10:25:14.677Z,9.80
2023-02-03T10:27:43.919Z,9.80
2023-02-03T10:30:25.699Z,9.80
2023-02-03T10:33:09.302Z,9.80
2023-02-03T10:45:50.113Z,9.90
2023-02-03T10:48:18.980Z,10.00
2023-02-03T10:50:50.234Z,10.00
2023-02-03T10:53:28.258Z,10.00
2023-02-03T10:56:30.877Z,10.00
2023-02-03T10:59:00.070Z,10.10
2023-02-03T11:01:38.496Z,10.10
2023-02-03T11:04:06.625Z,10.10
2023-02-03T11:06:44.501Z,10.10
2023-02-03T11:09:48.684Z,10.10
2023-02-03T11:12:18.189Z,10.10
2023-02-03T11:14:52.583Z,10.10
2023-02-03T11:17:23.001Z,10.10
2023-02-03T11:19:52.683Z,10.10
2023-02-03T11:22:28.609Z,10.10
2023-02-03T11:24:56.021Z,10.10
2023-02-03T11:27:27.615Z,10.10
2023-02-03T11:30:14.805Z,10.20
2023-02-03T11:32:43.460Z,10.10
2023-02-03T11:35:24.536Z,10.20
2023-02-03T11:37:59.310Z,10.20
2023-02-03T11:40:30.153Z,10.20
2023-02-03T11:43:18.033Z,10.20
2023-02-03T11:45:52.754Z,10.20
2023-02-03T11:48:28.712Z,10.20
2023-02-03T11:51:33.100Z,10.20
2023-02-03T11:54:10.721Z,10.20
2023-02-03T11:56:37.433Z,10.20
2023-02-03T11:59:21.352Z,10.20
2023-02-03T12:02:22.198Z,10.20
2023-02-03T12:05:30.139Z,10.20
2023-02-03T12:08:29.233Z,10.20
2023-02-03T12:11:29.374Z,10.20
2023-02-03T12:14:14.525Z,10.30
2023-02-03T12:16:41.243Z,10.30
2023-02-03T12:19:22.791Z,10.30
2023-02-03T12:22:09.913Z,10.30
2023-02-03T12:24:36.835Z,10.30
2023-02-03T12:27:22.402Z,10.30
2023-02-03T12:30:02.278Z,10.30
2023-02-03T12:33:00.518Z,10.30
2023-02-03T12:35:39.737Z,10.30
2023-02-03T12:38:18.689Z,10.30
2023-02-03T12:40:52.244Z,10.30
2023-02-03T12:43:38.736Z,10.40
2023-02-03T12:46:45.187Z,10.40
2023-02-03T12:49:33.700Z,10.40
2023-02-03T12:52:06.443Z,10.40
2023-02-03T12:55:11.022Z,10.40
2023-02-03T12:57:44.487Z,10.40
2023-02-03T13:00:35.629Z,10.40
2023-02-03T13:03:27.146Z,10.50
2023-02-03T13:06:05.180Z,10.50
2023-02-03T13:08:54.133Z,10.50
2023-02-03T13:11:30.325Z,10.40
2023-02-03T13:14:08.052Z,10.40
2023-02-03T13:16:40.864Z,10.40
2023-02-03T13:19:14.676Z,10.40
2023-02-03T13:21:42.205Z,10.40
2023-02-03T13:24:11.573Z,10.40
2023-02-03T13:27:05.715Z,10.40
2023-02-03T13:29:46.805Z,10.40
2023-02-03T13:32:25.387Z,10.50
2023-02-03T13:35:04.015Z,10.50
2023-02-03T13:37:33.582Z,10.50
2023-02-03T13:40:18.918Z,10.50
2023-02-03T13:42:52.453Z,10.50
2023-02-03T13:45:45.227Z,10.50
2023-02-03T13:48:17.047Z,10.50
2023-02-03T13:50:45.964Z,10.50
2023-02-03T13:53:24.707Z,10.60
2023-02-03T13:56:04.776Z,10.50
2023-02-03T13:58:38.135Z,10.60
2023-02-03T14:01:30.136Z,10.60
2023-02-03T14:03:58.010Z,10.60
2023-02-03T14:06:40.074Z,10.60
2023-02-03T14:09:31.953Z,10.60
2023-02-03T14:12:43.714Z,10.60
2023-02-03T14:15:26.110Z,10.60
2023-02-03T14:18:03.884Z,10.60
2023-02-03T14:20:44.137Z,10.60
2023-02-03T14:23:26.319Z,10.60
2023-02-03T14:25:56.943Z,10.60
2023-02-03T14:28:39.949Z,10.40
2023-02-03T14:31:26.518Z,9.90
2023-02-03T14:33:58.192Z,9.60
2023-02-03T14:36:37.053Z,9.40
2023-02-03T14:39:20.111Z,9.10
2023-02-03T14:42:02.426Z,8.90
2023-02-03T14:45:05.670Z,8.90
2023-02-03T14:47:52.507Z,8.80
2023-02-03T14:50:28.805Z,8.90
2023-02-03T14:53:01.595Z,8.90
2023-02-03T14:55:34.011Z,8.90
2023-02-03T14:58:05.468Z,8.90
2023-02-03T15:00:35.385Z,8.90
2023-02-03T15:03:11.086Z,8.90
2023-02-03T15:05:46.229Z,9.00
2023-02-03T15:08:44.249Z,9.00
2023-02-03T15:11:24.376Z,9.00
2023-02-03T15:13:51.760Z,9.00
2023-02-03T15:16:24.434Z,9.00
2023-02-03T15:18:56.866Z,9.00
2023-02-03T15:21:24.338Z,9.10
2023-02-03T15:23:52.085Z,9.10
2023-02-03T15:26:27.234Z,9.20
2023-02-03T15:29:03.924Z,9.20
2023-02-03T17:36:29.984Z,9.20
2023-02-03T17:55:25.914Z,9.00
2023-02-03T17:57:52.828Z,9.00
2023-02-03T18:00:20.478Z,9.00
2023-02-03T18:02:51.866Z,9.00
2023-02-03T18:05:21.680Z,9.00
2023-02-03T18:10:16.249Z,9.00
2023-02-03T18:12:43.405Z,8.90
2023-02-03T18:15:10.467Z,8.90
2023-02-03T18:17:37.617Z,8.90
2023-02-03T18:20:04.766Z,8.90
2023-02-03T18:22:31.590Z,8.90
2023-02-03T18:24:58.756Z,8.90
2023-02-03T18:27:25.609Z,8.90
2023-02-03T18:29:52.518Z,8.80
2023-02-03T18:32:20.080Z,8.80
2023-02-03T18:34:47.350Z,8.80
2023-02-03T18:37:14.374Z,8.90
2023-02-03T18:39:41.408Z,8.80
2023-02-03T18:42:08.369Z,8.80
2023-02-03T18:44:35.666Z,8.80
2023-02-03T18:47:07.059Z,8.80
2023-02-03T18:49:37.732Z,8.70
2023-02-03T18:52:05.397Z,8.70
2023-02-03T18:54:32.705Z,8.70
2023-02-03T18:56:59.625Z,8.70
2023-02-03T18:59:29.832Z,8.60
2023-02-03T19:01:56.821Z,8.60
2023-02-03T19:04:23.666Z,8.60
2023-02-03T19:06:52.621Z,8.60
2023-02-03T19:09:22.218Z,8.60
2023-02-03T19:11:49.357Z,8.60
2023-02-03T19:14:16.633Z,8.60
2023-02-03T19:16:44.039Z,8.60
2023-02-03T19:19:14.179Z,8.60
2023-02-03T19:21:41.289Z,8.60
2023-02-03T19:24:08.281Z,8.60
2023-02-03T19:26:35.414Z,8.60
2023-02-03T19:29:02.309Z,8.60
2023-02-03T19:31:29.457Z,8.60
2023-02-03T19:33:59.162Z,8.60
2023-02-03T19:36:28.401Z,8.60
2023-02-03T19:38:56.239Z,8.60
2023-02-03T19:41:25.745Z,8.60
2023-02-03T19:43:52.722Z,8.50
2023-02-03T19:46:27.366Z,8.60
2023-02-03T19:48:54.199Z,8.60
2023-02-03T19:51:21.143Z,8.60
2023-02-03T19:53:47.917Z,8.60
2023-02-03T19:56:14.964Z,8.60
2023-02-03T19:58:41.891Z,8.60
2023-02-03T20:01:10.378Z,8.60
2023-02-03T20:03:37.375Z,8.60
2023-02-03T20:06:04.275Z,8.60
2023-02-03T20:08:31.078Z,8.60
2023-02-03T20:10:57.971Z,8.60
2023-02-03T20:13:24.879Z,8.60
2023-02-03T20:15:57.330Z,8.60
2023-02-03T20:18:24.358Z,8.60
2023-02-03T20:20:59.511Z,8.60
2023-02-03T20:23:29.221Z,8.60
2023-02-03T20:25:56.344Z,8.60
2023-02-03T20:28:25.832Z,8.60
2023-02-03T20:31:00.585Z,8.60
2023-02-03T20:33:29.850Z,8.50
2023-02-03T20:35:57.289Z,8.50
2023-02-03T20:38:24.836Z,8.50
2023-02-03T20:40:51.774Z,8.50
2023-02-03T20:43:24.678Z,8.50
2023-02-03T20:45:52.520Z,8.50
2023-02-03T20:48:22.532Z,8.50
2023-02-03T20:50:52.668Z,8.50
2023-02-03T20:53:22.543Z,8.50
2023-02-03T20:55:50.183Z,8.50
2023-02-03T20:58:26.146Z,8.50
2023-02-03T21:00:57.150Z,8.50
2023-02-03T21:03:43.628Z,8.50
2023-02-03T21:06:18.914Z,8.50
2023-02-03T21:08:47.463Z,8.50
2023-02-03T21:11:17.386Z,8.40
2023-02-03T21:13:46.357Z,8.50
2023-02-03T21:16:18.021Z,8.50
2023-02-03T21:18:47.857Z,8.50
2023-02-03T21:21:24.798Z,8.50
2023-02-03T21:23:52.916Z,8.50
2023-02-03T21:26:32.502Z,8.50
2023-02-03T21:29:01.516Z,8.50
2023-02-03T21:31:37.194Z,8.40
2023-02-03T21:34:17.538Z,8.50
2023-02-03T21:36:44.383Z,8.40
2023-02-03T21:39:47.305Z,8.40
2023-02-03T21:42:42.001Z,8.50
2023-02-03T21:45:15.800Z,8.40
2023-02-03T21:47:47.560Z,8.40
2023-02-03T21:50:37.285Z,8.40
2023-02-03T21:53:10.310Z,8.50
2023-02-03T21:55:38.650Z,8.40
2023-02-03T21:58:17.563Z,8.40
